sensor_id;sensor_type;location;lat;lon;timestamp;temperature;humidity
6357;DHT22;3211;53.452;-2.264;2024-01-07T00:02:32;4.20;99.90
6357;DHT22;3211;53.452;-2.264;2024-01-07T00:05:19;4.20;99.90
6357;DHT22;3211;53.452;-2.264;2024-01-07T00:08:06;4.10;99.90
6357;DHT22;3211;53.452;-2.264;2024-01-07T00:10:53;3.90;99.90
6357;DHT22;3211;53.452;-2.264;2024-01-07T00:13:42;3.90;99.90
6357;DHT22;3211;53.452;-2.264;2024-01-07T00:16:29;4.00;99.90
6357;DHT22;3211;53.452;-2.264;2024-01-07T00:19:16;4.20;99.90
6357;DHT22;3211;53.452;-2.264;2024-01-07T00:22:04;4.00;99.90
6357;DHT22;3211;53.452;-2.264;2024-01-07T00:24:51;3.90;99.90
6357;DHT22;3211;53.452;-2.264;2024-01-07T00:27:38;3.80;99.90
6357;DHT22;3211;53.452;-2.264;2024-01-07T00:30:27;3.70;99.90
6357;DHT22;3211;53.452;-2.264;2024-01-07T00:33:15;3.60;99.90
6357;DHT22;3211;53.452;-2.264;2024-01-07T00:36:02;3.60;99.90
6357;DHT22;3211;53.452;-2.264;2024-01-07T00:38:50;3.60;99.90
6357;DHT22;3211;53.452;-2.264;2024-01-07T00:41:37;3.70;99.90
6357;DHT22;3211;53.452;-2.264;2024-01-07T00:44:24;3.60;99.90
6357;DHT22;3211;53.452;-2.264;2024-01-07T00:47:14;3.60;99.90
6357;DHT22;3211;53.452;-2.264;2024-01-07T00:50:01;3.30;99.90
6357;DHT22;3211;53.452;-2.264;2024-01-07T00:52:48;3.20;99.90
6357;DHT22;3211;53.452;-2.264;2024-01-07T00:55:35;3.10;99.90
6357;DHT22;3211;53.452;-2.264;2024-01-07T00:58:23;3.10;99.90
6357;DHT22;3211;53.452;-2.264;2024-01-07T01:01:10;3.20;99.90
6357;DHT22;3211;53.452;-2.264;2024-01-07T01:03:58;3.20;99.90
6357;DHT22;3211;53.452;-2.264;2024-01-07T01:06:46;3.20;99.90
6357;DHT22;3211;53.452;-2.264;2024-01-07T01:09:33;3.30;99.90
6357;DHT22;3211;53.452;-2.264;2024-01-07T01:12:20;3.30;99.90
6357;DHT22;3211;53.452;-2.264;2024-01-07T01:15:08;3.30;99.90
6357;DHT22;3211;53.452;-2.264;2024-01-07T01:17:55;3.40;99.90
6357;DHT22;3211;53.452;-2.264;2024-01-07T01:20:44;3.40;99.90
6357;DHT22;3211;53.452;-2.264;2024-01-07T01:23:31;3.30;99.90
6357;DHT22;3211;53.452;-2.264;2024-01-07T01:26:18;3.20;99.90
6357;DHT22;3211;53.452;-2.264;2024-01-07T01:29:05;3.20;99.90
6357;DHT22;3211;53.452;-2.264;2024-01-07T01:31:53;3.30;99.90
6357;DHT22;3211;53.452;-2.264;2024-01-07T01:34:40;3.20;99.90
6357;DHT22;3211;53.452;-2.264;2024-01-07T01:37:29;3.20;99.90
6357;DHT22;3211;53.452;-2.264;2024-01-07T01:40:18;3.10;99.90
6357;DHT22;3211;53.452;-2.264;2024-01-07T01:43:05;3.10;99.90
6357;DHT22;3211;53.452;-2.264;2024-01-07T01:45:53;3.10;99.90
6357;DHT22;3211;53.452;-2.264;2024-01-07T01:48:41;3.00;99.90
6357;DHT22;3211;53.452;-2.264;2024-01-07T01:51:29;2.90;99.90
6357;DHT22;3211;53.452;-2.264;2024-01-07T01:54:19;2.90;99.90
6357;DHT22;3211;53.452;-2.264;2024-01-07T01:57:07;3.00;99.90
6357;DHT22;3211;53.452;-2.264;2024-01-07T01:59:56;2.90;99.90
6357;DHT22;3211;53.452;-2.264;2024-01-07T02:02:48;2.90;99.90
6357;DHT22;3211;53.452;-2.264;2024-01-07T02:05:35;2.80;99.90
6357;DHT22;3211;53.452;-2.264;2024-01-07T02:08:22;2.90;99.90
6357;DHT22;3211;53.452;-2.264;2024-01-07T02:11:18;2.90;99.90
6357;DHT22;3211;53.452;-2.264;2024-01-07T02:14:06;3.00;99.90
6357;DHT22;3211;53.452;-2.264;2024-01-07T02:16:53;3.00;99.90
6357;DHT22;3211;53.452;-2.264;2024-01-07T02:19:40;3.00;99.90
6357;DHT22;3211;53.452;-2.264;2024-01-07T02:22:28;2.90;99.90
6357;DHT22;3211;53.452;-2.264;2024-01-07T02:25:16;2.80;99.90
6357;DHT22;3211;53.452;-2.264;2024-01-07T02:28:04;2.60;99.90
6357;DHT22;3211;53.452;-2.264;2024-01-07T02:30:51;2.60;99.90
6357;DHT22;3211;53.452;-2.264;2024-01-07T02:33:38;2.60;99.90
6357;DHT22;3211;53.452;-2.264;2024-01-07T02:36:26;2.70;99.90
6357;DHT22;3211;53.452;-2.264;2024-01-07T02:39:13;2.70;99.90
6357;DHT22;3211;53.452;-2.264;2024-01-07T02:42:02;2.70;99.90
6357;DHT22;3211;53.452;-2.264;2024-01-07T02:44:49;2.70;99.90
6357;DHT22;3211;53.452;-2.264;2024-01-07T02:47:36;2.70;99.90
6357;DHT22;3211;53.452;-2.264;2024-01-07T02:50:23;2.70;99.90
6357;DHT22;3211;53.452;-2.264;2024-01-07T02:53:11;2.80;99.90
6357;DHT22;3211;53.452;-2.264;2024-01-07T02:55:58;2.80;99.90
6357;DHT22;3211;53.452;-2.264;2024-01-07T02:58:46;2.80;99.90
6357;DHT22;3211;53.452;-2.264;2024-01-07T03:01:34;2.80;99.90
6357;DHT22;3211;53.452;-2.264;2024-01-07T03:04:26;2.70;99.90
6357;DHT22;3211;53.452;-2.264;2024-01-07T03:07:13;2.70;99.90
6357;DHT22;3211;53.452;-2.264;2024-01-07T03:10:00;2.90;99.90
6357;DHT22;3211;53.452;-2.264;2024-01-07T03:12:47;2.90;99.90
6357;DHT22;3211;53.452;-2.264;2024-01-07T03:15:36;2.80;99.90
6357;DHT22;3211;53.452;-2.264;2024-01-07T03:18:23;2.70;99.90
6357;DHT22;3211;53.452;-2.264;2024-01-07T03:21:17;2.70;99.90
6357;DHT22;3211;53.452;-2.264;2024-01-07T03:24:04;2.80;99.90
6357;DHT22;3211;53.452;-2.264;2024-01-07T03:26:52;2.90;99.90
6357;DHT22;3211;53.452;-2.264;2024-01-07T03:29:39;3.00;99.90
6357;DHT22;3211;53.452;-2.264;2024-01-07T03:32:28;3.00;99.90
6357;DHT22;3211;53.452;-2.264;2024-01-07T03:35:16;3.00;99.90
6357;DHT22;3211;53.452;-2.264;2024-01-07T03:38:03;3.10;99.90
6357;DHT22;3211;53.452;-2.264;2024-01-07T03:40:51;3.20;99.90
6357;DHT22;3211;53.452;-2.264;2024-01-07T03:43:38;3.20;99.90
6357;DHT22;3211;53.452;-2.264;2024-01-07T03:46:25;3.40;99.90
6357;DHT22;3211;53.452;-2.264;2024-01-07T03:49:14;3.60;99.90
6357;DHT22;3211;53.452;-2.264;2024-01-07T03:52:01;3.60;99.90
6357;DHT22;3211;53.452;-2.264;2024-01-07T03:54:48;3.50;99.90
6357;DHT22;3211;53.452;-2.264;2024-01-07T03:57:35;3.40;99.90
6357;DHT22;3211;53.452;-2.264;2024-01-07T04:00:23;3.50;99.90
6357;DHT22;3211;53.452;-2.264;2024-01-07T04:03:10;3.60;99.90
6357;DHT22;3211;53.452;-2.264;2024-01-07T04:05:59;3.70;99.90
6357;DHT22;3211;53.452;-2.264;2024-01-07T04:08:46;3.70;99.90
6357;DHT22;3211;53.452;-2.264;2024-01-07T04:11:39;3.70;99.90
6357;DHT22;3211;53.452;-2.264;2024-01-07T04:14:26;3.70;99.90
6357;DHT22;3211;53.452;-2.264;2024-01-07T04:17:14;3.80;99.90
6357;DHT22;3211;53.452;-2.264;2024-01-07T04:20:01;3.80;99.90
6357;DHT22;3211;53.452;-2.264;2024-01-07T04:22:50;3.80;99.90
6357;DHT22;3211;53.452;-2.264;2024-01-07T04:25:37;3.80;99.90
6357;DHT22;3211;53.452;-2.264;2024-01-07T04:28:26;3.90;99.90
6357;DHT22;3211;53.452;-2.264;2024-01-07T04:31:13;3.90;99.90
6357;DHT22;3211;53.452;-2.264;2024-01-07T04:34:01;3.80;99.90
6357;DHT22;3211;53.452;-2.264;2024-01-07T04:36:48;3.80;99.90
6357;DHT22;3211;53.452;-2.264;2024-01-07T04:39:37;3.80;99.90
6357;DHT22;3211;53.452;-2.264;2024-01-07T04:42:24;3.80;99.90
6357;DHT22;3211;53.452;-2.264;2024-01-07T04:45:11;3.90;99.90
6357;DHT22;3211;53.452;-2.264;2024-01-07T04:47:58;3.80;99.90
6357;DHT22;3211;53.452;-2.264;2024-01-07T04:50:45;3.80;99.90
6357;DHT22;3211;53.452;-2.264;2024-01-07T04:53:33;3.80;99.90
6357;DHT22;3211;53.452;-2.264;2024-01-07T04:56:21;3.70;99.90
6357;DHT22;3211;53.452;-2.264;2024-01-07T04:59:08;3.80;99.90
6357;DHT22;3211;53.452;-2.264;2024-01-07T05:01:56;3.80;99.90
6357;DHT22;3211;53.452;-2.264;2024-01-07T05:04:43;3.80;99.90
6357;DHT22;3211;53.452;-2.264;2024-01-07T05:07:30;3.90;99.90
6357;DHT22;3211;53.452;-2.264;2024-01-07T05:10:17;3.90;99.90
6357;DHT22;3211;53.452;-2.264;2024-01-07T05:13:06;3.90;99.90
6357;DHT22;3211;53.452;-2.264;2024-01-07T05:15:53;3.80;99.90
6357;DHT22;3211;53.452;-2.264;2024-01-07T05:18:40;3.80;99.90
6357;DHT22;3211;53.452;-2.264;2024-01-07T05:21:28;3.70;99.90
6357;DHT22;3211;53.452;-2.264;2024-01-07T05:24:15;3.60;99.90
6357;DHT22;3211;53.452;-2.264;2024-01-07T05:27:02;3.40;99.90
6357;DHT22;3211;53.452;-2.264;2024-01-07T05:29:51;3.50;99.90
6357;DHT22;3211;53.452;-2.264;2024-01-07T05:32:41;3.50;99.90
6357;DHT22;3211;53.452;-2.264;2024-01-07T05:35:28;3.50;99.90
6357;DHT22;3211;53.452;-2.264;2024-01-07T05:38:15;3.40;99.90
6357;DHT22;3211;53.452;-2.264;2024-01-07T05:41:02;3.40;99.90
6357;DHT22;3211;53.452;-2.264;2024-01-07T05:43:50;3.30;99.90
6357;DHT22;3211;53.452;-2.264;2024-01-07T05:46:40;3.40;99.90
6357;DHT22;3211;53.452;-2.264;2024-01-07T05:49:27;3.20;99.90
6357;DHT22;3211;53.452;-2.264;2024-01-07T05:52:14;3.20;99.90
6357;DHT22;3211;53.452;-2.264;2024-01-07T05:55:01;3.10;99.90
6357;DHT22;3211;53.452;-2.264;2024-01-07T05:57:48;3.00;99.90
6357;DHT22;3211;53.452;-2.264;2024-01-07T06:00:36;3.10;99.90
6357;DHT22;3211;53.452;-2.264;2024-01-07T06:03:24;3.10;99.90
6357;DHT22;3211;53.452;-2.264;2024-01-07T06:06:12;3.20;99.90
6357;DHT22;3211;53.452;-2.264;2024-01-07T06:09:00;3.30;99.90
6357;DHT22;3211;53.452;-2.264;2024-01-07T06:11:47;3.20;99.90
6357;DHT22;3211;53.452;-2.264;2024-01-07T06:14:35;3.20;99.90
6357;DHT22;3211;53.452;-2.264;2024-01-07T06:17:22;3.20;99.90
6357;DHT22;3211;53.452;-2.264;2024-01-07T06:20:11;3.20;99.90
6357;DHT22;3211;53.452;-2.264;2024-01-07T06:22:58;3.30;99.90
6357;DHT22;3211;53.452;-2.264;2024-01-07T06:25:46;3.20;99.90
6357;DHT22;3211;53.452;-2.264;2024-01-07T06:28:33;3.20;99.90
6357;DHT22;3211;53.452;-2.264;2024-01-07T06:31:20;3.30;99.90
6357;DHT22;3211;53.452;-2.264;2024-01-07T06:34:07;3.30;99.90
6357;DHT22;3211;53.452;-2.264;2024-01-07T06:37:00;3.30;99.90
6357;DHT22;3211;53.452;-2.264;2024-01-07T06:39:48;3.20;99.90
6357;DHT22;3211;53.452;-2.264;2024-01-07T06:42:35;3.10;99.90
6357;DHT22;3211;53.452;-2.264;2024-01-07T06:45:22;3.10;99.90
6357;DHT22;3211;53.452;-2.264;2024-01-07T06:48:10;3.00;99.90
6357;DHT22;3211;53.452;-2.264;2024-01-07T06:50:57;3.00;99.90
6357;DHT22;3211;53.452;-2.264;2024-01-07T06:53:46;3.10;99.90
6357;DHT22;3211;53.452;-2.264;2024-01-07T06:56:33;3.10;99.90
6357;DHT22;3211;53.452;-2.264;2024-01-07T06:59:20;3.20;99.90
6357;DHT22;3211;53.452;-2.264;2024-01-07T07:02:07;3.40;99.90
6357;DHT22;3211;53.452;-2.264;2024-01-07T07:04:55;3.50;99.90
6357;DHT22;3211;53.452;-2.264;2024-01-07T07:07:42;3.30;99.90
6357;DHT22;3211;53.452;-2.264;2024-01-07T07:10:30;3.20;99.90
6357;DHT22;3211;53.452;-2.264;2024-01-07T07:13:18;3.10;99.90
6357;DHT22;3211;53.452;-2.264;2024-01-07T07:16:06;3.00;99.90
6357;DHT22;3211;53.452;-2.264;2024-01-07T07:18:54;3.10;99.90
6357;DHT22;3211;53.452;-2.264;2024-01-07T07:21:41;3.20;99.90
6357;DHT22;3211;53.452;-2.264;2024-01-07T07:24:28;3.30;99.90
6357;DHT22;3211;53.452;-2.264;2024-01-07T07:27:17;3.30;99.90
6357;DHT22;3211;53.452;-2.264;2024-01-07T07:30:05;3.30;99.90
6357;DHT22;3211;53.452;-2.264;2024-01-07T07:32:53;3.60;99.90
6357;DHT22;3211;53.452;-2.264;2024-01-07T07:35:40;3.70;99.90
6357;DHT22;3211;53.452;-2.264;2024-01-07T07:38:28;3.70;99.90
6357;DHT22;3211;53.452;-2.264;2024-01-07T07:41:15;3.60;99.90
6357;DHT22;3211;53.452;-2.264;2024-01-07T07:44:04;3.60;99.90
6357;DHT22;3211;53.452;-2.264;2024-01-07T07:46:51;3.50;99.90
6357;DHT22;3211;53.452;-2.264;2024-01-07T07:49:38;3.40;99.90
6357;DHT22;3211;53.452;-2.264;2024-01-07T07:52:26;3.40;99.90
6357;DHT22;3211;53.452;-2.264;2024-01-07T07:55:13;3.50;99.90
6357;DHT22;3211;53.452;-2.264;2024-01-07T07:58:01;3.50;99.90
6357;DHT22;3211;53.452;-2.264;2024-01-07T08:00:50;3.50;99.90
6357;DHT22;3211;53.452;-2.264;2024-01-07T08:03:37;3.50;99.90
6357;DHT22;3211;53.452;-2.264;2024-01-07T08:06:24;3.40;99.90
6357;DHT22;3211;53.452;-2.264;2024-01-07T08:09:11;3.40;99.90
6357;DHT22;3211;53.452;-2.264;2024-01-07T08:11:59;3.40;99.90
6357;DHT22;3211;53.452;-2.264;2024-01-07T08:14:46;3.50;99.90
6357;DHT22;3211;53.452;-2.264;2024-01-07T08:17:34;3.50;99.90
6357;DHT22;3211;53.452;-2.264;2024-01-07T08:20:22;3.40;99.90
6357;DHT22;3211;53.452;-2.264;2024-01-07T08:23:09;3.40;99.90
6357;DHT22;3211;53.452;-2.264;2024-01-07T08:25:57;3.40;99.90
6357;DHT22;3211;53.452;-2.264;2024-01-07T08:28:44;3.60;99.90
6357;DHT22;3211;53.452;-2.264;2024-01-07T08:31:31;3.50;99.90
6357;DHT22;3211;53.452;-2.264;2024-01-07T08:34:20;3.50;99.90
6357;DHT22;3211;53.452;-2.264;2024-01-07T08:37:07;3.60;99.90
6357;DHT22;3211;53.452;-2.264;2024-01-07T08:39:55;3.70;99.90
6357;DHT22;3211;53.452;-2.264;2024-01-07T08:42:42;3.60;99.90
6357;DHT22;3211;53.452;-2.264;2024-01-07T08:45:29;3.50;99.90
6357;DHT22;3211;53.452;-2.264;2024-01-07T08:48:17;3.40;99.90
6357;DHT22;3211;53.452;-2.264;2024-01-07T08:51:06;3.30;99.90
6357;DHT22;3211;53.452;-2.264;2024-01-07T08:53:53;3.20;99.90
6357;DHT22;3211;53.452;-2.264;2024-01-07T08:56:41;3.00;99.90
6357;DHT22;3211;53.452;-2.264;2024-01-07T08:59:29;3.00;99.90
6357;DHT22;3211;53.452;-2.264;2024-01-07T09:02:17;3.00;99.90
6357;DHT22;3211;53.452;-2.264;2024-01-07T09:05:05;3.00;99.90
6357;DHT22;3211;53.452;-2.264;2024-01-07T09:07:53;3.00;99.90
6357;DHT22;3211;53.452;-2.264;2024-01-07T09:10:40;3.00;99.90
6357;DHT22;3211;53.452;-2.264;2024-01-07T09:13:28;3.10;99.90
6357;DHT22;3211;53.452;-2.264;2024-01-07T09:16:15;3.10;99.90
6357;DHT22;3211;53.452;-2.264;2024-01-07T09:19:02;3.10;99.90
6357;DHT22;3211;53.452;-2.264;2024-01-07T09:21:49;3.10;99.90
6357;DHT22;3211;53.452;-2.264;2024-01-07T09:24:38;3.20;99.90
6357;DHT22;3211;53.452;-2.264;2024-01-07T09:27:25;3.50;99.90
6357;DHT22;3211;53.452;-2.264;2024-01-07T09:30:13;3.50;99.90
6357;DHT22;3211;53.452;-2.264;2024-01-07T09:33:01;3.60;99.90
6357;DHT22;3211;53.452;-2.264;2024-01-07T09:35:48;3.70;99.90
6357;DHT22;3211;53.452;-2.264;2024-01-07T09:38:35;3.80;99.90
6357;DHT22;3211;53.452;-2.264;2024-01-07T09:41:24;4.00;99.90
6357;DHT22;3211;53.452;-2.264;2024-01-07T09:44:12;4.00;99.90
6357;DHT22;3211;53.452;-2.264;2024-01-07T09:46:59;4.10;99.90
6357;DHT22;3211;53.452;-2.264;2024-01-07T09:49:47;4.10;99.90
6357;DHT22;3211;53.452;-2.264;2024-01-07T09:52:34;4.20;99.90
6357;DHT22;3211;53.452;-2.264;2024-01-07T09:55:26;4.20;99.90
6357;DHT22;3211;53.452;-2.264;2024-01-07T09:58:15;4.10;99.90
6357;DHT22;3211;53.452;-2.264;2024-01-07T10:01:03;4.00;99.90
6357;DHT22;3211;53.452;-2.264;2024-01-07T10:03:51;4.00;99.90
6357;DHT22;3211;53.452;-2.264;2024-01-07T10:06:38;4.20;99.90
6357;DHT22;3211;53.452;-2.264;2024-01-07T10:09:29;4.30;99.90
6357;DHT22;3211;53.452;-2.264;2024-01-07T10:12:16;4.60;99.90
6357;DHT22;3211;53.452;-2.264;2024-01-07T10:15:06;4.70;99.90
6357;DHT22;3211;53.452;-2.264;2024-01-07T10:17:55;4.80;99.90
6357;DHT22;3211;53.452;-2.264;2024-01-07T10:20:42;4.90;99.90
6357;DHT22;3211;53.452;-2.264;2024-01-07T10:23:29;4.90;99.90
6357;DHT22;3211;53.452;-2.264;2024-01-07T10:26:16;5.10;99.90
6357;DHT22;3211;53.452;-2.264;2024-01-07T10:29:04;5.10;99.90
6357;DHT22;3211;53.452;-2.264;2024-01-07T10:31:55;5.20;99.90
6357;DHT22;3211;53.452;-2.264;2024-01-07T10:34:46;5.40;99.90
6357;DHT22;3211;53.452;-2.264;2024-01-07T10:37:34;5.50;99.90
6357;DHT22;3211;53.452;-2.264;2024-01-07T10:40:21;5.60;99.90
6357;DHT22;3211;53.452;-2.264;2024-01-07T10:43:09;5.70;99.90
6357;DHT22;3211;53.452;-2.264;2024-01-07T10:46:00;5.80;99.90
6357;DHT22;3211;53.452;-2.264;2024-01-07T10:48:54;5.80;99.90
6357;DHT22;3211;53.452;-2.264;2024-01-07T10:51:43;5.90;99.90
6357;DHT22;3211;53.452;-2.264;2024-01-07T10:54:31;6.10;99.90
6357;DHT22;3211;53.452;-2.264;2024-01-07T10:57:27;6.10;99.90
6357;DHT22;3211;53.452;-2.264;2024-01-07T11:00:15;6.20;99.90
6357;DHT22;3211;53.452;-2.264;2024-01-07T11:03:09;6.40;99.90
6357;DHT22;3211;53.452;-2.264;2024-01-07T11:06:03;6.60;99.90
6357;DHT22;3211;53.452;-2.264;2024-01-07T11:08:56;6.80;99.90
6357;DHT22;3211;53.452;-2.264;2024-01-07T11:11:44;7.10;99.90
6357;DHT22;3211;53.452;-2.264;2024-01-07T11:14:35;7.20;99.90
6357;DHT22;3211;53.452;-2.264;2024-01-07T11:17:41;7.20;99.90
6357;DHT22;3211;53.452;-2.264;2024-01-07T11:20:32;7.50;99.90
6357;DHT22;3211;53.452;-2.264;2024-01-07T11:23:28;7.70;99.90
6357;DHT22;3211;53.452;-2.264;2024-01-07T11:26:16;7.70;99.90
6357;DHT22;3211;53.452;-2.264;2024-01-07T11:29:03;8.00;99.90
6357;DHT22;3211;53.452;-2.264;2024-01-07T11:31:51;8.10;99.90
6357;DHT22;3211;53.452;-2.264;2024-01-07T11:34:38;8.10;99.90
6357;DHT22;3211;53.452;-2.264;2024-01-07T11:37:26;8.30;99.90
6357;DHT22;3211;53.452;-2.264;2024-01-07T11:40:15;8.30;99.90
6357;DHT22;3211;53.452;-2.264;2024-01-07T11:43:04;8.20;99.90
6357;DHT22;3211;53.452;-2.264;2024-01-07T11:45:51;8.10;99.90
6357;DHT22;3211;53.452;-2.264;2024-01-07T11:48:40;8.00;99.90
6357;DHT22;3211;53.452;-2.264;2024-01-07T11:51:32;8.10;99.90
6357;DHT22;3211;53.452;-2.264;2024-01-07T11:54:21;8.10;99.90
6357;DHT22;3211;53.452;-2.264;2024-01-07T11:57:10;8.20;99.90
6357;DHT22;3211;53.452;-2.264;2024-01-07T11:59:57;8.20;99.90
6357;DHT22;3211;53.452;-2.264;2024-01-07T12:02:46;8.00;99.90
6357;DHT22;3211;53.452;-2.264;2024-01-07T12:05:33;8.00;99.90
6357;DHT22;3211;53.452;-2.264;2024-01-07T12:08:20;7.90;99.90
6357;DHT22;3211;53.452;-2.264;2024-01-07T12:11:08;8.10;99.90
6357;DHT22;3211;53.452;-2.264;2024-01-07T12:13:57;8.10;99.90
6357;DHT22;3211;53.452;-2.264;2024-01-07T12:16:46;8.00;99.90
6357;DHT22;3211;53.452;-2.264;2024-01-07T12:19:33;8.40;99.90
6357;DHT22;3211;53.452;-2.264;2024-01-07T12:22:20;8.60;99.90
6357;DHT22;3211;53.452;-2.264;2024-01-07T12:25:08;8.80;99.90
6357;DHT22;3211;53.452;-2.264;2024-01-07T12:27:55;9.00;99.90
6357;DHT22;3211;53.452;-2.264;2024-01-07T12:30:44;9.00;99.90
6357;DHT22;3211;53.452;-2.264;2024-01-07T12:33:31;8.90;99.90
6357;DHT22;3211;53.452;-2.264;2024-01-07T12:36:20;8.50;99.90
6357;DHT22;3211;53.452;-2.264;2024-01-07T12:39:08;8.90;99.90
6357;DHT22;3211;53.452;-2.264;2024-01-07T12:41:56;8.70;99.90
6357;DHT22;3211;53.452;-2.264;2024-01-07T12:44:43;8.50;99.90
6357;DHT22;3211;53.452;-2.264;2024-01-07T12:47:32;8.20;99.90
6357;DHT22;3211;53.452;-2.264;2024-01-07T12:50:19;7.90;99.90
6357;DHT22;3211;53.452;-2.264;2024-01-07T12:53:09;7.60;99.90
6357;DHT22;3211;53.452;-2.264;2024-01-07T12:55:56;7.50;99.90
6357;DHT22;3211;53.452;-2.264;2024-01-07T12:58:43;7.30;99.90
6357;DHT22;3211;53.452;-2.264;2024-01-07T13:01:31;7.40;99.90
6357;DHT22;3211;53.452;-2.264;2024-01-07T13:04:19;7.30;99.90
6357;DHT22;3211;53.452;-2.264;2024-01-07T13:07:07;7.40;99.90
6357;DHT22;3211;53.452;-2.264;2024-01-07T13:09:54;7.50;99.90
6357;DHT22;3211;53.452;-2.264;2024-01-07T13:12:41;7.60;99.90
6357;DHT22;3211;53.452;-2.264;2024-01-07T13:15:29;7.80;99.90
6357;DHT22;3211;53.452;-2.264;2024-01-07T13:18:17;7.70;99.90
6357;DHT22;3211;53.452;-2.264;2024-01-07T13:21:06;7.50;99.90
6357;DHT22;3211;53.452;-2.264;2024-01-07T13:23:53;7.70;99.90
6357;DHT22;3211;53.452;-2.264;2024-01-07T13:26:40;7.60;99.90
6357;DHT22;3211;53.452;-2.264;2024-01-07T13:29:28;7.60;99.90
6357;DHT22;3211;53.452;-2.264;2024-01-07T13:32:15;7.70;99.90
6357;DHT22;3211;53.452;-2.264;2024-01-07T13:35:04;7.70;99.90
6357;DHT22;3211;53.452;-2.264;2024-01-07T13:37:53;7.50;99.90
6357;DHT22;3211;53.452;-2.264;2024-01-07T13:40:40;7.50;99.90
6357;DHT22;3211;53.452;-2.264;2024-01-07T13:43:27;7.50;99.90
6357;DHT22;3211;53.452;-2.264;2024-01-07T13:46:15;7.60;99.90
6357;DHT22;3211;53.452;-2.264;2024-01-07T13:49:05;7.50;99.90
6357;DHT22;3211;53.452;-2.264;2024-01-07T13:51:53;7.50;99.90
6357;DHT22;3211;53.452;-2.264;2024-01-07T13:54:42;7.60;99.90
6357;DHT22;3211;53.452;-2.264;2024-01-07T13:57:29;7.60;99.90
6357;DHT22;3211;53.452;-2.264;2024-01-07T14:00:17;7.50;99.90
6357;DHT22;3211;53.452;-2.264;2024-01-07T14:03:05;7.60;99.90
6357;DHT22;3211;53.452;-2.264;2024-01-07T14:05:52;7.70;99.90
6357;DHT22;3211;53.452;-2.264;2024-01-07T14:08:39;7.60;99.90
6357;DHT22;3211;53.452;-2.264;2024-01-07T14:11:28;7.60;99.90
6357;DHT22;3211;53.452;-2.264;2024-01-07T14:14:15;7.60;99.90
6357;DHT22;3211;53.452;-2.264;2024-01-07T14:17:03;7.50;99.90
6357;DHT22;3211;53.452;-2.264;2024-01-07T14:19:50;7.30;99.90
6357;DHT22;3211;53.452;-2.264;2024-01-07T14:22:39;7.30;99.90
6357;DHT22;3211;53.452;-2.264;2024-01-07T14:25:26;7.20;99.90
6357;DHT22;3211;53.452;-2.264;2024-01-07T14:28:14;7.20;99.90
6357;DHT22;3211;53.452;-2.264;2024-01-07T14:31:02;7.10;99.90
6357;DHT22;3211;53.452;-2.264;2024-01-07T14:33:50;7.00;99.90
6357;DHT22;3211;53.452;-2.264;2024-01-07T14:36:39;7.00;99.90
6357;DHT22;3211;53.452;-2.264;2024-01-07T14:39:27;6.90;99.90
6357;DHT22;3211;53.452;-2.264;2024-01-07T14:42:14;7.10;99.90
6357;DHT22;3211;53.452;-2.264;2024-01-07T14:45:03;7.10;99.90
6357;DHT22;3211;53.452;-2.264;2024-01-07T14:47:51;7.20;99.90
6357;DHT22;3211;53.452;-2.264;2024-01-07T14:50:38;7.10;99.90
6357;DHT22;3211;53.452;-2.264;2024-01-07T14:53:26;7.20;99.90
6357;DHT22;3211;53.452;-2.264;2024-01-07T14:56:14;7.10;99.90
6357;DHT22;3211;53.452;-2.264;2024-01-07T14:59:01;7.10;99.90
6357;DHT22;3211;53.452;-2.264;2024-01-07T15:01:50;7.10;99.90
6357;DHT22;3211;53.452;-2.264;2024-01-07T15:04:39;7.10;99.90
6357;DHT22;3211;53.452;-2.264;2024-01-07T15:07:26;7.20;99.90
6357;DHT22;3211;53.452;-2.264;2024-01-07T15:10:16;7.00;99.90
6357;DHT22;3211;53.452;-2.264;2024-01-07T15:13:04;7.00;99.90
6357;DHT22;3211;53.452;-2.264;2024-01-07T15:15:51;6.80;99.90
6357;DHT22;3211;53.452;-2.264;2024-01-07T15:18:40;6.80;99.90
6357;DHT22;3211;53.452;-2.264;2024-01-07T15:21:27;6.80;99.90
6357;DHT22;3211;53.452;-2.264;2024-01-07T15:24:14;6.80;99.90
6357;DHT22;3211;53.452;-2.264;2024-01-07T15:27:01;7.00;99.90
6357;DHT22;3211;53.452;-2.264;2024-01-07T15:29:48;7.00;99.90
6357;DHT22;3211;53.452;-2.264;2024-01-07T15:32:36;7.00;99.90
6357;DHT22;3211;53.452;-2.264;2024-01-07T15:35:24;7.00;99.90
6357;DHT22;3211;53.452;-2.264;2024-01-07T15:38:11;6.90;99.90
6357;DHT22;3211;53.452;-2.264;2024-01-07T15:40:59;6.90;99.90
6357;DHT22;3211;53.452;-2.264;2024-01-07T15:43:46;6.90;99.90
6357;DHT22;3211;53.452;-2.264;2024-01-07T15:46:33;6.70;99.90
6357;DHT22;3211;53.452;-2.264;2024-01-07T15:49:20;6.80;99.90
6357;DHT22;3211;53.452;-2.264;2024-01-07T15:52:09;6.90;99.90
6357;DHT22;3211;53.452;-2.264;2024-01-07T15:54:58;6.80;99.90
6357;DHT22;3211;53.452;-2.264;2024-01-07T15:57:45;6.70;99.90
6357;DHT22;3211;53.452;-2.264;2024-01-07T16:00:32;6.80;99.90
6357;DHT22;3211;53.452;-2.264;2024-01-07T16:03:20;6.70;99.90
6357;DHT22;3211;53.452;-2.264;2024-01-07T16:06:07;6.70;99.90
6357;DHT22;3211;53.452;-2.264;2024-01-07T16:08:55;6.70;99.90
6357;DHT22;3211;53.452;-2.264;2024-01-07T16:11:43;6.60;99.90
6357;DHT22;3211;53.452;-2.264;2024-01-07T16:14:31;6.50;99.90
6357;DHT22;3211;53.452;-2.264;2024-01-07T16:17:21;6.50;99.90
6357;DHT22;3211;53.452;-2.264;2024-01-07T16:20:09;6.60;99.90
6357;DHT22;3211;53.452;-2.264;2024-01-07T16:22:57;6.50;99.90
6357;DHT22;3211;53.452;-2.264;2024-01-07T16:25:45;6.60;99.90
6357;DHT22;3211;53.452;-2.264;2024-01-07T16:28:33;6.50;99.90
6357;DHT22;3211;53.452;-2.264;2024-01-07T16:31:20;6.60;99.90
6357;DHT22;3211;53.452;-2.264;2024-01-07T16:34:07;6.60;99.90
6357;DHT22;3211;53.452;-2.264;2024-01-07T16:36:55;6.60;99.90
6357;DHT22;3211;53.452;-2.264;2024-01-07T16:39:42;6.60;99.90
6357;DHT22;3211;53.452;-2.264;2024-01-07T16:42:30;6.60;99.90
6357;DHT22;3211;53.452;-2.264;2024-01-07T16:45:18;6.60;99.90
6357;DHT22;3211;53.452;-2.264;2024-01-07T16:48:06;6.60;99.90
6357;DHT22;3211;53.452;-2.264;2024-01-07T16:50:53;6.60;99.90
6357;DHT22;3211;53.452;-2.264;2024-01-07T16:53:41;6.60;99.90
6357;DHT22;3211;53.452;-2.264;2024-01-07T16:56:28;6.50;99.90
6357;DHT22;3211;53.452;-2.264;2024-01-07T16:59:17;6.40;99.90
6357;DHT22;3211;53.452;-2.264;2024-01-07T17:02:06;6.30;99.90
6357;DHT22;3211;53.452;-2.264;2024-01-07T17:04:54;6.30;99.90
6357;DHT22;3211;53.452;-2.264;2024-01-07T17:07:41;6.30;99.90
6357;DHT22;3211;53.452;-2.264;2024-01-07T17:10:28;6.30;99.90
6357;DHT22;3211;53.452;-2.264;2024-01-07T17:13:15;6.30;99.90
6357;DHT22;3211;53.452;-2.264;2024-01-07T17:16:05;6.30;99.90
6357;DHT22;3211;53.452;-2.264;2024-01-07T17:18:52;6.40;99.90
6357;DHT22;3211;53.452;-2.264;2024-01-07T17:21:40;6.40;99.90
6357;DHT22;3211;53.452;-2.264;2024-01-07T17:24:27;6.50;99.90
6357;DHT22;3211;53.452;-2.264;2024-01-07T17:27:15;6.30;99.90
6357;DHT22;3211;53.452;-2.264;2024-01-07T17:30:02;6.20;99.90
6357;DHT22;3211;53.452;-2.264;2024-01-07T17:32:51;6.10;99.90
6357;DHT22;3211;53.452;-2.264;2024-01-07T17:35:39;6.10;99.90
6357;DHT22;3211;53.452;-2.264;2024-01-07T17:38:26;6.20;99.90
6357;DHT22;3211;53.452;-2.264;2024-01-07T17:41:13;6.20;99.90
6357;DHT22;3211;53.452;-2.264;2024-01-07T17:44:00;6.20;99.90
6357;DHT22;3211;53.452;-2.264;2024-01-07T17:46:49;6.10;99.90
6357;DHT22;3211;53.452;-2.264;2024-01-07T17:49:37;6.10;99.90
6357;DHT22;3211;53.452;-2.264;2024-01-07T17:52:25;6.10;99.90
6357;DHT22;3211;53.452;-2.264;2024-01-07T17:55:12;6.20;99.90
6357;DHT22;3211;53.452;-2.264;2024-01-07T17:58:01;6.20;99.90
6357;DHT22;3211;53.452;-2.264;2024-01-07T18:00:49;6.10;99.90
6357;DHT22;3211;53.452;-2.264;2024-01-07T18:03:37;6.20;99.90
6357;DHT22;3211;53.452;-2.264;2024-01-07T18:06:25;6.20;99.90
6357;DHT22;3211;53.452;-2.264;2024-01-07T18:09:13;6.30;99.90
6357;DHT22;3211;53.452;-2.264;2024-01-07T18:12:00;6.40;99.90
6357;DHT22;3211;53.452;-2.264;2024-01-07T18:14:48;6.30;99.90
6357;DHT22;3211;53.452;-2.264;2024-01-07T18:17:36;6.20;99.90